createdAt,value
2023-03-04T00:01:54.993Z,36.30
2023-03-04T00:06:57.555Z,34.08
2023-03-04T00:11:59.715Z,32.63
2023-03-04T00:17:03.706Z,32.72
2023-03-04T00:22:05.428Z,30.30
2023-03-04T00:27:07.090Z,31.10
2023-03-04T00:32:08.971Z,31.75
2023-03-04T00:37:10.668Z,31.50
2023-03-04T00:42:12.272Z,35.03
2023-03-04T00:47:13.942Z,34.45
2023-03-04T00:52:15.806Z,33.28
2023-03-04T00:57:17.409Z,33.80
2023-03-04T01:02:19.176Z,32.20
2023-03-04T01:07:21.086Z,30.73
2023-03-04T01:12:22.716Z,31.48
2023-03-04T01:17:24.346Z,34.75
2023-03-04T01:22:26.043Z,35.35
2023-03-04T01:27:27.620Z,35.90
2023-03-04T01:32:29.360Z,35.38
2023-03-04T01:37:31.204Z,33.53
2023-03-04T01:42:35.963Z,33.17
2023-03-04T01:47:37.622Z,33.85
2023-03-04T01:52:41.125Z,31.63
2023-03-04T01:57:43.083Z,30.27
2023-03-04T02:02:44.910Z,30.63
2023-03-04T02:07:46.558Z,33.28
2023-03-04T02:12:48.577Z,32.88
2023-03-04T02:17:50.797Z,35.75
2023-03-04T02:22:57.622Z,36.70
2023-03-04T02:27:59.336Z,33.05
2023-03-04T02:33:01.168Z,33.85
2023-03-04T02:38:02.790Z,35.00
2023-03-04T02:43:04.565Z,34.83
2023-03-04T02:48:07.127Z,33.60
2023-03-04T02:53:09.303Z,31.23
2023-03-04T02:58:12.095Z,34.22
2023-03-04T03:03:13.946Z,33.88
2023-03-04T03:08:17.105Z,35.70
2023-03-04T03:13:19.255Z,33.03
2023-03-04T03:18:21.266Z,30.58
2023-03-04T03:23:22.974Z,32.05
2023-03-04T03:28:24.699Z,31.58
2023-03-04T03:33:26.505Z,30.27
2023-03-04T03:38:28.369Z,30.20
2023-03-04T03:43:29.981Z,32.25
2023-03-04T03:48:31.594Z,35.22
2023-03-04T03:53:33.211Z,29.30
2023-03-04T03:58:34.926Z,29.75
2023-03-04T04:03:36.743Z,27.00
2023-03-04T04:08:38.548Z,28.55
2023-03-04T04:13:40.137Z,28.40
2023-03-04T04:18:41.768Z,28.73
2023-03-04T04:23:43.457Z,28.13
2023-03-04T04:28:45.080Z,27.17
2023-03-04T04:33:46.665Z,26.73
2023-03-04T04:38:49.389Z,28.88
2023-03-04T04:43:51.426Z,26.88
2023-03-04T04:48:53.029Z,23.65
2023-03-04T04:53:54.698Z,27.63
2023-03-04T04:59:00.384Z,28.50
2023-03-04T05:04:02.082Z,27.73
2023-03-04T05:09:04.451Z,25.55
2023-03-04T05:14:06.225Z,23.73
2023-03-04T05:19:07.862Z,21.20
2023-03-04T05:24:09.565Z,23.73
2023-03-04T05:29:11.228Z,24.58
2023-03-04T05:34:12.808Z,23.95
2023-03-04T05:39:14.464Z,26.65
2023-03-04T05:44:16.091Z,24.55
2023-03-04T05:49:18.023Z,24.52
2023-03-04T05:54:19.829Z,21.27
2023-03-04T05:59:21.439Z,22.45
2023-03-04T06:04:23.062Z,21.25
2023-03-04T06:09:24.879Z,23.25
2023-03-04T06:14:26.786Z,51.60
2023-03-04T06:19:28.454Z,74.38
2023-03-04T06:24:30.092Z,38.90
2023-03-04T06:29:32.067Z,32.15
2023-03-04T06:34:33.849Z,29.38
2023-03-04T06:39:35.467Z,31.02
2023-03-04T06:44:37.482Z,31.42
2023-03-04T06:49:39.660Z,34.78
2023-03-04T06:54:41.253Z,30.60
2023-03-04T06:59:42.892Z,30.50
2023-03-04T07:04:44.568Z,31.00
2023-03-04T07:09:46.312Z,31.08
2023-03-04T07:14:47.931Z,33.13
2023-03-04T07:19:49.665Z,33.83
2023-03-04T07:24:51.340Z,37.63
2023-03-04T07:29:53.016Z,38.80
2023-03-04T07:34:54.684Z,37.72
2023-03-04T07:39:56.313Z,33.90
2023-03-04T07:44:59.629Z,34.75
2023-03-04T07:50:01.323Z,171.63
2023-03-04T07:55:03.342Z,47.90
2023-03-04T08:00:05.543Z,64.63
2023-03-04T08:05:13.940Z,39.10
2023-03-04T08:10:15.886Z,36.45
2023-03-04T08:15:17.676Z,35.50
2023-03-04T08:20:19.434Z,34.67
2023-03-04T08:25:21.778Z,37.40
2023-03-04T08:30:23.524Z,37.00
2023-03-04T08:35:25.230Z,35.97
2023-03-04T08:40:27.267Z,32.92
2023-03-04T08:45:29.020Z,34.90
2023-03-04T08:50:30.650Z,39.63
2023-03-04T08:55:32.664Z,34.60
2023-03-04T09:00:36.195Z,30.88
2023-03-04T09:05:39.059Z,29.60
2023-03-04T09:10:41.192Z,29.30
2023-03-04T09:15:48.029Z,31.85
2023-03-04T09:20:50.225Z,25.75
2023-03-04T09:25:51.917Z,25.38
2023-03-04T09:30:53.756Z,25.20
2023-03-04T09:35:55.492Z,21.85
2023-03-04T09:40:59.236Z,27.23
2023-03-04T09:46:07.020Z,20.30
2023-03-04T09:51:32.856Z,19.55
2023-03-04T09:56:37.923Z,18.48
2023-03-04T10:01:51.397Z,17.23
2023-03-04T10:06:54.505Z,15.95
2023-03-04T10:12:06.253Z,14.15
2023-03-04T10:17:34.654Z,13.43
2023-03-04T10:22:46.470Z,12.73
2023-03-04T10:28:05.033Z,13.27
2023-03-04T10:33:18.878Z,9.83
2023-03-04T10:38:22.504Z,12.32
2023-03-04T10:43:24.822Z,11.18
2023-03-04T10:48:31.464Z,11.82
2023-03-04T10:53:41.040Z,10.68
2023-03-04T10:58:43.845Z,12.10
2023-03-04T11:03:49.421Z,11.65
2023-03-04T11:08:56.382Z,10.75
2023-03-04T11:14:02.673Z,10.38
2023-03-04T11:19:11.003Z,10.55
2023-03-04T11:24:28.355Z,11.37
2023-03-04T11:29:52.225Z,11.75
2023-03-04T11:35:07.727Z,11.45
2023-03-04T11:40:23.867Z,11.23
2023-03-04T11:46:05.604Z,12.38
2023-03-04T11:51:13.063Z,11.80
2023-03-04T11:56:33.251Z,12.48
2023-03-04T12:01:51.960Z,12.73
2023-03-04T12:06:56.512Z,12.20
2023-03-04T12:12:21.319Z,12.60
2023-03-04T12:17:41.266Z,11.98
2023-03-04T12:22:50.006Z,12.18
2023-03-04T12:28:21.208Z,11.25
2023-03-04T12:33:44.264Z,10.70
2023-03-04T12:39:21.439Z,10.68
2023-03-04T12:44:23.551Z,9.55
2023-03-04T12:49:35.520Z,11.07
2023-03-04T12:54:50.656Z,10.05
2023-03-04T13:00:48.239Z,9.15
2023-03-04T13:06:08.398Z,9.98
2023-03-04T13:11:33.977Z,9.82
2023-03-04T13:16:38.589Z,10.25
2023-03-04T13:21:47.977Z,10.48
2023-03-04T13:26:49.564Z,9.43
2023-03-04T13:32:36.869Z,9.55
2023-03-04T13:37:57.648Z,9.43
2023-03-04T13:43:26.926Z,8.95
2023-03-04T13:48:36.426Z,10.77
2023-03-04T13:53:39.953Z,11.77
2023-03-04T13:58:42.110Z,11.55
2023-03-04T14:03:44.934Z,11.70
2023-03-04T14:08:47.528Z,11.60
2023-03-04T14:13:49.412Z,11.93
2023-03-04T14:19:21.805Z,14.85
2023-03-04T14:24:24.436Z,16.67
2023-03-04T14:29:29.394Z,16.88
2023-03-04T14:34:37.385Z,17.23
2023-03-04T14:39:39.158Z,18.38
2023-03-04T14:44:49.213Z,17.55
2023-03-04T14:49:51.318Z,19.05
2023-03-04T14:55:17.613Z,18.88
2023-03-04T15:00:21.980Z,19.70
2023-03-04T15:05:26.503Z,19.55
2023-03-04T15:10:37.324Z,18.65
2023-03-04T15:15:46.896Z,18.63
2023-03-04T15:21:02.922Z,17.65
2023-03-04T15:26:05.935Z,19.42
2023-03-04T15:31:16.308Z,15.38
2023-03-04T15:36:23.212Z,16.45
2023-03-04T15:41:26.367Z,14.55
2023-03-04T15:46:28.009Z,14.88
2023-03-04T15:51:30.050Z,13.88
2023-03-04T15:56:33.922Z,14.25
2023-03-04T16:01:35.836Z,15.52
2023-03-04T16:06:37.588Z,16.75
2023-03-04T16:11:43.828Z,14.90
2023-03-04T16:16:46.923Z,15.93
2023-03-04T16:21:48.667Z,16.25
2023-03-04T16:26:50.505Z,14.27
2023-03-04T16:31:54.253Z,13.50
2023-03-04T16:36:55.865Z,14.25
2023-03-04T16:41:57.541Z,13.48
2023-03-04T16:46:59.232Z,12.73
2023-03-04T16:52:01.182Z,13.52
2023-03-04T16:57:03.097Z,13.02
2023-03-04T17:02:12.889Z,13.15
2023-03-04T17:07:14.617Z,12.38
2023-03-04T17:12:16.232Z,12.32
2023-03-04T17:17:18.567Z,12.25
2023-03-04T17:22:20.197Z,10.65
2023-03-04T17:27:21.834Z,10.07
2023-03-04T17:32:23.639Z,9.30
2023-03-04T17:37:25.917Z,9.27
2023-03-04T17:42:27.509Z,9.90
2023-03-04T17:47:29.298Z,9.18
2023-03-04T17:52:31.099Z,10.23
2023-03-04T17:57:36.371Z,9.95
2023-03-04T18:02:37.969Z,9.13
2023-03-04T18:07:39.839Z,8.63
2023-03-04T18:12:41.436Z,8.00
2023-03-04T18:17:45.339Z,7.88
2023-03-04T18:22:46.977Z,7.80
2023-03-04T18:27:48.616Z,7.22
2023-03-04T18:32:52.456Z,8.70
2023-03-04T18:37:54.307Z,8.25
2023-03-04T18:42:57.112Z,10.43
2023-03-04T18:47:59.496Z,8.77
2023-03-04T18:53:01.255Z,8.25
2023-03-04T18:58:04.459Z,11.48
2023-03-04T19:03:10.016Z,10.27
2023-03-04T19:08:12.009Z,9.00
2023-03-04T19:13:15.761Z,9.15
2023-03-04T19:18:17.716Z,8.98
2023-03-04T19:23:19.461Z,9.35
2023-03-04T19:33:22.814Z,11.15
2023-03-04T19:38:24.441Z,11.23
2023-03-04T19:43:26.336Z,11.85
2023-03-04T19:48:28.104Z,13.05
2023-03-04T19:53:29.761Z,12.00
2023-03-04T19:58:31.349Z,13.40
2023-03-04T20:03:33.664Z,13.02
2023-03-04T20:08:38.368Z,11.80
2023-03-04T20:13:40.302Z,11.35
2023-03-04T20:18:43.170Z,10.02
2023-03-04T20:23:44.836Z,10.15
2023-03-04T20:28:46.438Z,10.77
2023-03-04T20:33:49.368Z,10.68
2023-03-04T20:38:57.986Z,9.48
2023-03-04T20:44:06.141Z,9.80
2023-03-04T20:49:16.640Z,8.93
2023-03-04T20:54:18.273Z,10.20
2023-03-04T20:59:19.886Z,8.90
2023-03-04T21:04:21.669Z,8.02
2023-03-04T21:09:23.556Z,7.47
2023-03-04T21:14:28.783Z,7.13
2023-03-04T21:19:32.925Z,7.75
2023-03-04T21:24:39.428Z,8.27
2023-03-04T21:29:41.052Z,7.35
2023-03-04T21:34:46.719Z,7.43
2023-03-04T21:39:48.462Z,8.10
2023-03-04T21:44:51.428Z,8.35
2023-03-04T21:49:53.446Z,8.73
2023-03-04T21:54:56.010Z,9.10
2023-03-04T21:59:57.654Z,9.25
2023-03-04T22:04:59.279Z,11.15
2023-03-04T22:10:03.038Z,11.02
2023-03-04T22:15:05.240Z,10.95
2023-03-04T22:20:07.268Z,11.18
2023-03-04T22:25:09.444Z,11.32
2023-03-04T22:30:11.999Z,12.38
2023-03-04T22:35:14.568Z,11.93
2023-03-04T22:40:16.402Z,10.75
2023-03-04T22:45:18.453Z,11.63
2023-03-04T22:50:21.890Z,13.25
2023-03-04T22:55:23.562Z,12.98
2023-03-04T23:00:27.367Z,13.25
2023-03-04T23:05:29.374Z,13.30
2023-03-04T23:10:31.241Z,12.95
2023-03-04T23:15:32.828Z,13.45
2023-03-04T23:20:34.483Z,13.25
2023-03-04T23:25:37.184Z,13.27
2023-03-04T23:30:38.862Z,13.43
2023-03-04T23:35:40.500Z,13.40
2023-03-04T23:40:42.305Z,14.70
2023-03-04T23:45:44.145Z,13.52
2023-03-04T23:50:51.364Z,14.10
2023-03-04T23:55:53.008Z,13.77
